createdAt,value
2023-04-15T00:00:26.184Z,98.88
2023-04-15T00:01:26.272Z,98.88
2023-04-15T00:02:26.459Z,98.88
2023-04-15T00:03:26.702Z,98.68
2023-04-15T00:04:26.656Z,98.79
2023-04-15T00:05:26.574Z,98.79
2023-04-15T00:06:26.695Z,98.88
2023-04-15T00:07:26.757Z,98.88
2023-04-15T00:08:26.867Z,98.88
2023-04-15T00:09:26.905Z,98.88
2023-04-15T00:10:27.023Z,98.88
2023-04-15T00:11:27.111Z,98.88
2023-04-15T00:12:27.178Z,98.88
2023-04-15T00:13:27.277Z,98.88
2023-04-15T00:14:27.349Z,98.88
2023-04-15T00:15:27.404Z,98.88
2023-04-15T00:16:27.597Z,98.88
2023-04-15T00:17:27.628Z,98.99
2023-04-15T00:18:27.684Z,98.99
2023-04-15T00:19:27.738Z,98.88
2023-04-15T00:20:27.844Z,98.99
2023-04-15T00:21:27.895Z,98.88
2023-04-15T00:22:28.073Z,98.99
2023-04-15T00:23:28.126Z,98.88
2023-04-15T00:24:28.166Z,98.88
2023-04-15T00:25:28.226Z,98.88
2023-04-15T00:26:28.312Z,98.79
2023-04-15T00:27:28.408Z,98.79
2023-04-15T00:28:28.541Z,98.88
2023-04-15T00:29:28.604Z,98.88
2023-04-15T00:30:28.697Z,98.79
2023-04-15T00:31:28.797Z,98.68
2023-04-15T00:32:28.835Z,98.79
2023-04-15T00:33:28.947Z,98.79
2023-04-15T00:34:29.020Z,98.68
2023-04-15T00:35:29.038Z,98.68
2023-04-15T00:36:29.155Z,98.68
2023-04-15T00:37:29.198Z,98.68
2023-04-15T00:38:29.324Z,98.68
2023-04-15T00:39:29.372Z,98.68
2023-04-15T00:40:29.466Z,98.68
2023-04-15T00:41:29.513Z,98.68
2023-04-15T00:42:29.620Z,98.68
2023-04-15T00:43:29.760Z,98.68
2023-04-15T00:44:29.850Z,98.68
2023-04-15T00:45:30.024Z,98.68
2023-04-15T05:40:15.232Z,96.90
2023-04-15T05:44:59.979Z,96.65
2023-04-15T06:30:05.215Z,93.17
2023-04-15T08:08:47.004Z,91.59
2023-04-15T08:09:44.982Z,92.21
2023-04-15T08:10:45.101Z,91.18
2023-04-15T08:11:45.129Z,91.90
2023-04-15T08:12:45.236Z,92.00
2023-04-15T08:13:45.402Z,90.87
2023-04-15T08:14:45.408Z,91.69
2023-04-15T08:15:45.517Z,92.31
2023-04-15T08:16:45.577Z,91.49
2023-04-15T08:17:45.674Z,91.69
2023-04-15T08:18:45.802Z,90.87
2023-04-15T08:19:45.835Z,91.28
2023-04-15T08:20:45.892Z,91.38
2023-04-15T08:21:45.988Z,91.49
2023-04-15T08:22:46.052Z,91.69
2023-04-15T08:23:46.127Z,90.87
2023-04-15T08:24:46.192Z,91.69
2023-04-15T08:25:46.285Z,91.59
2023-04-15T08:26:46.406Z,92.41
2023-04-15T08:27:46.464Z,92.41
2023-04-15T08:28:46.573Z,92.10
2023-04-15T08:29:46.686Z,92.51
2023-04-15T08:30:46.712Z,92.10
2023-04-15T08:31:46.912Z,91.69
2023-04-15T08:32:46.987Z,91.90
2023-04-15T08:33:46.984Z,90.77
2023-04-15T08:34:47.064Z,91.08
2023-04-15T08:35:47.216Z,91.28
2023-04-15T08:36:47.265Z,91.59
2023-04-15T08:37:47.309Z,92.41
2023-04-15T08:38:47.443Z,92.41
2023-04-15T08:39:47.475Z,92.72
2023-04-15T08:40:47.693Z,92.93
2023-04-15T08:41:47.737Z,92.72
2023-04-15T08:42:47.726Z,92.93
2023-04-15T08:43:47.818Z,92.82
2023-04-15T08:44:47.936Z,92.93
2023-04-15T08:45:47.940Z,93.13
2023-04-15T08:46:48.048Z,93.13
2023-04-15T08:47:55.001Z,92.51
2023-04-15T08:48:48.291Z,92.41
2023-04-15T08:49:48.293Z,92.93
2023-04-15T08:50:48.444Z,92.72
2023-04-15T08:51:48.457Z,92.61
2023-04-15T08:52:48.512Z,93.02
2023-04-15T08:53:48.637Z,92.72
2023-04-15T08:54:49.719Z,92.51
2023-04-15T08:55:48.788Z,92.41
2023-04-15T08:56:48.871Z,92.31
2023-04-15T08:57:48.925Z,92.41
2023-04-15T08:58:49.383Z,92.31
2023-04-15T08:59:49.055Z,93.64
2023-04-15T09:00:49.175Z,93.29
2023-04-15T09:01:49.245Z,93.54
2023-04-15T09:02:49.452Z,92.27
2023-04-15T09:03:49.538Z,92.36
2023-04-15T09:04:49.494Z,92.98
2023-04-15T09:05:50.453Z,93.29
2023-04-15T09:06:49.622Z,92.06
2023-04-15T09:07:50.729Z,92.98
2023-04-15T09:08:49.809Z,93.90
2023-04-15T09:09:49.849Z,92.47
2023-04-15T09:10:51.023Z,93.08
2023-04-15T09:11:50.075Z,92.63
2023-04-15T09:12:50.155Z,91.30
2023-04-15T09:13:50.224Z,91.96
2023-04-15T09:14:50.282Z,92.36
2023-04-15T09:15:50.393Z,93.04
2023-04-15T09:16:51.475Z,92.63
2023-04-15T09:17:50.531Z,91.82
2023-04-15T09:18:50.596Z,91.30
2023-04-15T09:19:50.715Z,91.71
2023-04-15T09:20:50.807Z,92.22
2023-04-15T09:21:50.860Z,92.74
2023-04-15T09:22:50.974Z,92.02
2023-04-15T09:23:51.101Z,91.20
2023-04-15T09:24:51.150Z,91.09
2023-04-15T09:25:51.191Z,91.50
2023-04-15T09:26:51.311Z,92.22
2023-04-15T09:27:51.384Z,91.82
2023-04-15T09:28:51.517Z,91.71
2023-04-15T09:29:51.603Z,91.91
2023-04-15T09:30:51.923Z,92.22
2023-04-15T09:31:51.758Z,91.82
2023-04-15T09:32:51.858Z,91.50
2023-04-15T09:33:51.935Z,92.02
2023-04-15T09:34:53.038Z,92.43
2023-04-15T09:35:52.120Z,92.02
2023-04-15T09:36:52.192Z,91.91
2023-04-15T09:37:52.268Z,91.61
2023-04-15T09:38:52.348Z,92.12
2023-04-15T09:39:52.465Z,92.43
2023-04-15T09:40:52.501Z,92.63
2023-04-15T09:41:52.555Z,92.32
2023-04-15T09:42:52.628Z,91.71
2023-04-15T09:43:52.706Z,91.82
2023-04-15T09:44:52.912Z,92.43
2023-04-15T09:45:52.912Z,92.53
2023-04-15T09:46:52.972Z,92.32
2023-04-15T09:47:53.139Z,92.57
2023-04-15T09:48:53.174Z,93.19
2023-04-15T09:49:54.732Z,92.94
2023-04-15T09:50:53.319Z,93.25
2023-04-15T09:52:04.513Z,92.98
2023-04-15T09:52:54.489Z,93.08
2023-04-15T09:53:53.574Z,92.53
2023-04-15T09:54:54.811Z,93.70
2023-04-15T09:55:53.773Z,94.07
2023-04-15T09:56:53.839Z,94.27
2023-04-15T09:57:53.922Z,93.35
2023-04-15T09:58:54.998Z,93.45
2023-04-15T09:59:55.220Z,92.74
2023-04-15T10:00:54.333Z,92.98
2023-04-15T10:01:54.374Z,92.78
2023-04-15T10:02:54.466Z,92.57
2023-04-15T10:03:54.583Z,93.15
2023-04-15T10:04:54.521Z,93.29
2023-04-15T10:05:54.668Z,93.08
2023-04-15T10:06:54.670Z,93.39
2023-04-15T10:07:54.744Z,93.70
2023-04-15T10:08:55.840Z,94.21
2023-04-15T10:09:56.432Z,93.39
2023-04-15T10:10:55.507Z,93.80
2023-04-15T10:11:55.106Z,93.60
2023-04-15T10:12:56.377Z,94.01
2023-04-15T10:13:56.262Z,94.01
2023-04-15T10:14:56.336Z,94.52
2023-04-15T10:15:56.453Z,94.83
2023-04-15T10:16:55.577Z,94.52
2023-04-15T10:17:55.793Z,94.01
2023-04-15T10:18:55.709Z,94.73
2023-04-15T10:19:55.840Z,95.40
2023-04-15T10:20:55.859Z,95.40
2023-04-15T10:21:56.124Z,95.50
2023-04-15T10:22:56.091Z,94.48
2023-04-15T10:23:57.152Z,94.37
2023-04-15T10:24:56.475Z,94.37
2023-04-15T10:25:56.287Z,95.20
2023-04-15T10:26:56.468Z,94.58
2023-04-15T10:27:57.618Z,95.09
2023-04-15T10:28:56.956Z,94.78
2023-04-15T10:29:56.611Z,94.27
2023-04-15T10:30:57.820Z,95.29
2023-04-15T10:31:56.799Z,95.09
2023-04-15T10:32:57.004Z,94.68
2023-04-15T10:33:57.166Z,95.29
2023-04-15T10:34:57.019Z,95.05
2023-04-15T10:35:57.142Z,95.46
2023-04-15T10:36:57.278Z,95.40
2023-04-15T10:37:57.321Z,95.15
2023-04-15T10:38:57.485Z,94.33
2023-04-15T10:39:57.489Z,94.33
2023-04-15T10:40:57.608Z,94.23
2023-04-15T10:41:58.632Z,94.68
2023-04-15T10:42:57.695Z,95.09
2023-04-15T10:43:57.932Z,95.20
2023-04-15T10:44:57.919Z,95.09
2023-04-15T10:45:58.029Z,94.99
2023-04-15T10:46:58.072Z,94.89
2023-04-15T10:47:58.276Z,94.48
2023-04-15T10:48:58.234Z,94.89
2023-04-15T10:49:58.300Z,95.09
2023-04-15T10:50:59.476Z,95.61
2023-04-15T10:51:58.509Z,95.87
2023-04-15T10:52:59.547Z,94.99
2023-04-15T10:53:58.838Z,95.15
2023-04-15T10:54:59.768Z,94.84
2023-04-15T10:55:58.884Z,94.37
2023-04-15T10:56:58.875Z,94.37
2023-04-15T10:57:59.009Z,94.58
2023-04-15T10:58:59.137Z,94.99
2023-04-15T10:59:59.183Z,94.48
2023-04-15T11:00:59.272Z,94.99
2023-04-15T11:01:59.598Z,95.20
2023-04-15T11:02:59.577Z,94.89
2023-04-15T11:03:59.657Z,95.20
2023-04-15T11:04:59.616Z,94.89
2023-04-15T11:06:00.727Z,94.58
2023-04-15T11:06:59.822Z,95.29
2023-04-15T11:07:59.926Z,94.78
2023-04-15T11:09:00.989Z,94.99
2023-04-15T11:10:00.151Z,95.20
2023-04-15T11:11:00.121Z,95.20
2023-04-15T11:12:00.359Z,95.15
2023-04-15T11:13:00.340Z,95.20
2023-04-15T11:14:01.666Z,94.89
2023-04-15T11:15:00.430Z,94.84
2023-04-15T11:16:00.544Z,94.68
2023-04-15T11:17:00.633Z,94.89
2023-04-15T11:18:00.856Z,94.58
2023-04-15T11:19:00.961Z,95.15
2023-04-15T11:20:00.819Z,94.95
2023-04-15T11:21:01.937Z,94.95
2023-04-15T11:22:02.024Z,94.95
2023-04-15T11:23:14.550Z,95.36
2023-04-15T11:24:02.949Z,95.05
2023-04-15T11:25:01.356Z,94.43
2023-04-15T11:26:01.638Z,95.15
2023-04-15T11:27:01.484Z,95.25
2023-04-15T11:28:01.566Z,95.25
2023-04-15T11:29:01.804Z,95.36
2023-04-15T11:30:01.760Z,95.25
2023-04-15T11:31:02.852Z,94.84
2023-04-15T11:32:01.978Z,94.84
2023-04-15T11:33:02.060Z,95.05
2023-04-15T11:34:02.098Z,94.54
2023-04-15T11:35:02.144Z,94.02
2023-04-15T11:36:03.277Z,94.84
2023-04-15T11:37:02.303Z,95.15
2023-04-15T11:38:03.361Z,95.25
2023-04-15T11:39:03.442Z,95.36
2023-04-15T11:40:02.560Z,95.15
2023-04-15T11:41:03.628Z,95.56
2023-04-15T11:42:02.675Z,95.56
2023-04-15T11:43:02.745Z,95.25
2023-04-15T11:44:03.927Z,95.87
2023-04-15T11:45:02.901Z,95.66
2023-04-15T11:46:03.206Z,95.15
2023-04-15T11:47:03.100Z,95.36
2023-04-15T11:48:04.228Z,95.66
2023-04-15T11:49:03.265Z,95.66
2023-04-15T11:50:03.360Z,95.36
2023-04-15T11:51:04.499Z,95.76
2023-04-15T11:52:03.530Z,95.36
2023-04-15T11:53:06.875Z,95.25
2023-04-15T11:54:04.211Z,95.15
2023-04-15T11:55:03.797Z,95.15
2023-04-15T11:56:03.886Z,95.05
2023-04-15T11:57:04.977Z,95.46
2023-04-15T11:58:04.031Z,95.25
2023-04-15T11:59:05.121Z,95.25
2023-04-15T12:00:05.256Z,95.36
2023-04-15T12:01:04.321Z,95.36
2023-04-15T12:02:04.694Z,95.36
2023-04-15T12:03:04.721Z,95.66
2023-04-15T12:04:05.267Z,95.61
2023-04-15T12:05:04.695Z,95.66
2023-04-15T12:06:04.804Z,95.20
2023-04-15T12:07:04.831Z,95.50
2023-04-15T12:08:04.862Z,96.58
2023-04-15T12:09:05.950Z,96.17
2023-04-15T12:10:06.014Z,96.07
2023-04-15T12:11:05.128Z,96.07
2023-04-15T12:12:05.182Z,96.07
2023-04-15T12:13:05.236Z,96.38
2023-04-15T12:14:05.629Z,96.48
2023-04-15T12:15:05.447Z,96.17
2023-04-15T12:16:06.575Z,96.38
2023-04-15T12:17:05.647Z,96.07
2023-04-15T12:18:05.742Z,95.87
2023-04-15T12:19:05.741Z,96.07
2023-04-15T12:20:05.830Z,96.74
2023-04-15T12:21:05.894Z,96.74
2023-04-15T12:22:05.988Z,96.33
2023-04-15T12:23:06.079Z,96.64
2023-04-15T12:24:07.319Z,96.03
2023-04-15T12:25:06.362Z,95.62
2023-04-15T12:26:07.460Z,95.41
2023-04-15T12:27:06.462Z,95.10
2023-04-15T12:28:06.509Z,95.31
2023-04-15T12:29:06.562Z,95.10
2023-04-15T12:30:07.852Z,96.13
2023-04-15T12:31:06.760Z,95.82
2023-04-15T12:32:06.861Z,95.10
2023-04-15T12:33:07.956Z,95.37
2023-04-15T12:34:07.185Z,94.75
2023-04-15T12:35:07.077Z,94.90
2023-04-15T12:36:07.130Z,95.47
2023-04-15T12:37:07.215Z,95.82
2023-04-15T12:38:07.280Z,95.00
2023-04-15T12:39:08.380Z,95.62
2023-04-15T12:40:07.513Z,95.62
2023-04-15T12:41:08.567Z,95.31
2023-04-15T12:42:08.681Z,94.80
2023-04-15T12:43:07.719Z,95.10
2023-04-15T12:44:08.820Z,95.17
2023-04-15T12:45:07.877Z,95.57
2023-04-15T12:46:08.026Z,95.57
2023-04-15T14:42:42.768Z,95.10
2023-04-15T14:43:43.716Z,95.31
2023-04-15T14:44:43.787Z,95.72
2023-04-15T14:45:45.423Z,95.72
2023-04-15T14:46:43.019Z,95.62
2023-04-15T14:47:43.106Z,95.41
2023-04-15T14:48:43.071Z,95.82
2023-04-15T14:49:43.151Z,96.03
2023-04-15T14:50:43.250Z,96.13
2023-04-15T14:51:43.323Z,96.13
2023-04-15T14:52:43.362Z,95.82
2023-04-15T14:53:43.492Z,95.82
2023-04-15T14:54:43.555Z,95.62
2023-04-15T14:55:44.603Z,95.72
2023-04-15T14:56:44.696Z,95.51
2023-04-15T14:57:43.846Z,95.82
2023-04-15T14:58:43.826Z,95.92
2023-04-15T14:59:44.981Z,95.41
2023-04-15T15:00:43.969Z,95.31
2023-04-15T15:01:44.131Z,95.36
2023-04-15T15:02:45.237Z,95.62
2023-04-15T15:03:44.468Z,95.41
2023-04-15T15:04:44.430Z,95.72
2023-04-15T15:05:44.523Z,95.62
2023-04-15T15:06:44.511Z,95.92
2023-04-15T15:07:44.517Z,95.82
2023-04-15T15:08:45.602Z,95.51
2023-04-15T15:09:45.680Z,95.72
2023-04-15T15:10:48.722Z,95.92
2023-04-15T15:11:44.840Z,96.13
2023-04-15T15:12:44.952Z,95.21
2023-04-15T15:13:46.097Z,95.41
2023-04-15T15:14:46.114Z,95.31
2023-04-15T15:15:45.220Z,95.31
2023-04-15T15:16:45.270Z,95.26
2023-04-15T15:17:45.396Z,95.06
2023-04-15T15:18:45.452Z,95.57
2023-04-15T15:19:45.538Z,95.47
2023-04-15T15:20:45.642Z,95.37
2023-04-15T15:21:46.700Z,95.78
2023-04-15T15:22:46.790Z,95.26
2023-04-15T15:23:45.910Z,95.37
2023-04-15T15:24:45.947Z,95.41
2023-04-15T15:25:46.020Z,95.57
2023-04-15T15:26:47.121Z,95.37
2023-04-15T15:27:46.217Z,95.57
2023-04-15T15:28:47.404Z,95.26
2023-04-15T15:29:50.540Z,95.67
2023-04-15T15:30:46.543Z,94.55
2023-04-15T15:31:46.621Z,94.65
2023-04-15T15:32:46.737Z,95.17
2023-04-15T15:33:46.798Z,94.96
2023-04-15T15:34:47.810Z,94.96
2023-04-15T15:35:46.998Z,94.75
2023-04-15T15:36:46.994Z,94.45
2023-04-15T15:37:47.058Z,94.55
2023-04-15T15:38:48.153Z,95.57
2023-04-15T15:39:47.194Z,95.57
2023-04-15T15:40:47.264Z,95.88
2023-04-15T15:41:47.369Z,94.34
2023-04-15T15:42:47.464Z,94.24
2023-04-15T15:43:47.544Z,95.26
2023-04-15T15:44:47.623Z,95.17
2023-04-15T15:45:48.716Z,95.57
2023-04-15T15:46:47.814Z,95.06
2023-04-15T15:47:47.986Z,95.17
2023-04-15T15:48:47.982Z,95.47
2023-04-15T15:49:48.013Z,95.26
2023-04-15T15:50:48.127Z,94.14
2023-04-15T15:51:48.137Z,94.34
2023-04-15T15:52:48.399Z,94.65
2023-04-15T15:53:48.319Z,94.45
2023-04-15T15:54:48.355Z,94.96
2023-04-15T15:55:48.436Z,95.47
2023-04-15T15:56:48.503Z,95.37
2023-04-15T15:57:48.667Z,95.72
2023-04-15T15:58:48.659Z,95.37
2023-04-15T15:59:51.157Z,95.41
2023-04-15T16:00:48.914Z,95.62
2023-04-15T16:01:48.975Z,95.31
2023-04-15T16:03:05.803Z,95.72
2023-04-15T16:03:50.147Z,95.92
2023-04-15T16:04:49.074Z,96.13
2023-04-15T16:05:49.199Z,96.23
2023-04-15T16:06:50.245Z,96.03
2023-04-15T16:07:50.328Z,96.03
2023-04-15T16:08:50.387Z,96.03
2023-04-15T16:09:49.498Z,95.92
2023-04-15T16:10:49.511Z,96.23
2023-04-15T16:11:49.632Z,96.13
2023-04-15T16:12:50.705Z,96.13
2023-04-15T16:13:49.807Z,96.03
2023-04-15T16:14:49.929Z,96.44
2023-04-15T16:15:49.965Z,96.74
2023-04-15T16:16:50.163Z,96.13
2023-04-15T16:17:50.159Z,96.03
2023-04-15T16:18:50.182Z,96.03
2023-04-15T16:19:55.559Z,96.23
2023-04-15T16:20:51.340Z,95.92
2023-04-15T16:21:50.449Z,95.92
2023-04-15T16:22:50.519Z,96.23
2023-04-15T16:23:50.599Z,96.23
2023-04-15T16:24:50.793Z,96.23
2023-04-15T16:25:50.745Z,96.33
2023-04-15T16:26:50.886Z,96.44
2023-04-15T16:28:01.494Z,96.03
2023-04-15T16:28:52.005Z,95.62
2023-04-15T16:29:51.118Z,95.82
2023-04-15T16:30:51.291Z,96.03
2023-04-15T16:31:52.314Z,96.13
2023-04-15T16:32:51.398Z,95.10
2023-04-15T16:33:51.510Z,95.51
2023-04-15T16:34:51.573Z,95.31
2023-04-15T16:35:51.615Z,95.41
2023-04-15T16:36:51.698Z,95.51
2023-04-15T16:37:51.750Z,95.82
2023-04-15T16:38:51.852Z,95.41
2023-04-15T16:39:51.900Z,95.21
2023-04-15T16:40:53.024Z,95.51
2023-04-15T16:41:52.109Z,95.82
2023-04-15T16:42:52.200Z,95.72
2023-04-15T16:43:52.292Z,95.41
2023-04-15T16:44:52.440Z,95.51
2023-04-15T16:45:53.489Z,95.92
2023-04-15T16:46:52.580Z,95.72
2023-04-15T16:47:52.636Z,96.03
2023-04-15T16:48:52.744Z,95.41
2023-04-15T16:49:52.826Z,95.62
2023-04-15T16:50:52.887Z,95.82
2023-04-15T16:51:54.551Z,95.82
2023-04-15T16:52:53.065Z,95.82
2023-04-15T16:53:54.242Z,96.13
2023-04-15T16:54:54.286Z,96.33
2023-04-15T16:55:54.344Z,96.44
2023-04-15T16:56:53.525Z,96.03
2023-04-15T16:58:03.321Z,96.03
2023-04-15T16:58:54.879Z,96.13
2023-04-15T16:59:53.665Z,96.03
2023-04-15T17:00:54.746Z,96.13
2023-04-15T17:01:55.041Z,96.23
2023-04-15T17:02:54.028Z,95.82
2023-04-15T17:03:56.048Z,95.92
2023-04-15T17:04:54.312Z,95.92
2023-04-15T17:05:55.188Z,96.13
2023-04-15T17:06:55.246Z,95.92
2023-04-15T17:07:54.372Z,96.13
2023-04-15T17:08:54.601Z,96.13
2023-04-15T17:09:55.558Z,95.92
2023-04-15T17:10:54.569Z,96.03
2023-04-15T17:11:54.644Z,96.33
2023-04-15T17:12:54.779Z,96.33
2023-04-15T17:13:55.804Z,96.44
2023-04-15T17:14:55.953Z,96.48
2023-04-15T17:15:55.906Z,96.58
2023-04-15T17:16:55.089Z,96.79
2023-04-15T17:17:55.145Z,96.64
2023-04-15T17:18:55.233Z,96.79
2023-04-15T17:19:55.298Z,96.89
2023-04-15T17:20:56.357Z,96.79
2023-04-15T17:21:55.440Z,96.48
2023-04-15T17:22:55.541Z,96.48
2023-04-15T17:23:56.608Z,96.69
2023-04-15T17:24:55.698Z,96.79
2023-04-15T17:25:55.732Z,96.89
2023-04-15T17:26:56.825Z,96.99
2023-04-15T17:27:55.914Z,97.20
2023-04-15T17:28:56.068Z,97.20
2023-04-15T17:29:56.128Z,96.99
2023-04-15T17:30:56.190Z,97.09
2023-04-15T17:31:56.230Z,97.30
2023-04-15T17:32:57.370Z,97.40
2023-04-15T17:34:08.755Z,97.61
2023-04-15T17:34:57.572Z,97.61
2023-04-15T17:35:56.606Z,97.50
2023-04-15T17:36:56.710Z,97.61
2023-04-15T17:37:56.802Z,97.50
2023-04-15T17:38:56.935Z,97.40
2023-04-15T17:39:56.972Z,97.50
2023-04-15T17:40:57.115Z,97.61
2023-04-15T17:41:57.118Z,97.61
2023-04-15T17:42:58.233Z,97.50
2023-04-15T17:43:57.306Z,97.50
2023-04-15T17:44:57.380Z,97.50
2023-04-15T17:45:58.665Z,97.71
2023-04-15T17:46:57.607Z,97.61
2023-04-15T17:47:57.823Z,97.50
2023-04-15T17:48:57.812Z,97.50
2023-04-15T17:49:57.788Z,97.61
2023-04-15T17:50:57.869Z,97.71
2023-04-15T17:51:58.940Z,97.91
2023-04-15T17:52:58.025Z,97.81
2023-04-15T17:53:59.084Z,97.91
2023-04-15T17:54:59.194Z,98.02
2023-04-15T17:55:58.245Z,98.02
2023-04-15T17:56:59.492Z,97.91
2023-04-15T17:57:58.428Z,97.96
2023-04-15T17:58:58.501Z,97.91
2023-04-15T17:59:58.583Z,97.96
2023-04-15T18:00:58.697Z,98.07
2023-04-15T18:01:58.904Z,98.12
2023-04-15T18:02:58.970Z,98.16
2023-04-15T18:03:59.222Z,98.27
2023-04-15T18:04:59.165Z,98.37
2023-04-15T18:05:59.104Z,98.27
2023-04-15T18:06:59.170Z,98.37
2023-04-15T18:07:59.271Z,98.37
2023-04-15T18:08:59.356Z,98.27
2023-04-15T18:09:59.487Z,98.37
2023-04-15T18:10:59.512Z,98.58
2023-04-15T18:11:59.594Z,98.47
2023-04-15T18:12:59.693Z,98.27
2023-04-15T18:13:59.776Z,98.37
2023-04-15T18:14:59.865Z,98.37
2023-04-15T18:15:59.916Z,98.47
2023-04-15T18:17:00.009Z,98.37
2023-04-15T18:18:00.213Z,98.47
2023-04-15T18:19:00.153Z,98.58
2023-04-15T18:20:00.284Z,98.68
2023-04-15T18:21:00.346Z,98.68
2023-04-15T18:22:01.434Z,98.68
2023-04-15T18:23:00.507Z,98.68
2023-04-15T18:24:01.642Z,98.78
2023-04-15T18:25:00.726Z,98.68
2023-04-15T18:26:00.790Z,98.68
2023-04-15T18:27:01.917Z,98.78
2023-04-15T18:28:00.907Z,98.78
2023-04-15T18:29:02.028Z,98.68
2023-04-15T18:30:01.088Z,98.68
2023-04-15T18:31:01.163Z,98.58
2023-04-15T18:32:01.251Z,98.68
2023-04-15T18:33:01.339Z,98.68
2023-04-15T18:34:01.394Z,98.68
2023-04-15T18:35:01.493Z,98.68
2023-04-15T18:36:01.577Z,98.78
2023-04-15T18:37:01.702Z,98.78
2023-04-15T18:38:01.825Z,98.78
2023-04-15T18:39:01.876Z,98.78
2023-04-15T18:40:01.909Z,98.88
2023-04-15T18:41:02.000Z,99.09
2023-04-15T18:42:02.095Z,98.99
2023-04-15T18:43:02.183Z,98.99
2023-04-15T18:44:02.291Z,98.99
2023-04-15T18:45:02.345Z,98.99
2023-04-15T18:46:02.432Z,99.09
